createdAt,value
2018-06-15T00:00:01.362Z,1.70
2018-06-15T00:02:31.133Z,1.73
2018-06-15T00:04:59.286Z,1.50
2018-06-15T00:07:27.440Z,1.63
2018-06-15T00:09:56.125Z,1.23
2018-06-15T00:12:24.311Z,1.40
2018-06-15T00:14:52.453Z,1.80
2018-06-15T00:17:20.599Z,1.67
2018-06-15T00:19:48.737Z,1.90
2018-06-15T00:22:16.889Z,1.50
2018-06-15T00:24:45.036Z,1.90
2018-06-15T00:27:13.244Z,1.80
2018-06-15T00:29:41.392Z,1.90
2018-06-15T00:32:09.536Z,2.03
2018-06-15T00:34:37.747Z,1.60
2018-06-15T00:37:05.953Z,1.50
2018-06-15T00:39:34.088Z,1.83
2018-06-15T00:42:02.265Z,1.67
2018-06-15T00:44:30.409Z,2.07
2018-06-15T00:46:58.547Z,2.23
2018-06-15T00:49:26.676Z,1.67
2018-06-15T00:51:54.834Z,2.00
2018-06-15T00:54:22.960Z,2.00
2018-06-15T00:57:02.469Z,2.17
2018-06-15T00:59:30.625Z,1.50
2018-06-15T01:01:58.824Z,1.53
2018-06-15T01:04:26.980Z,1.70
2018-06-15T01:06:55.157Z,1.40
2018-06-15T01:09:23.316Z,2.10
2018-06-15T01:11:51.436Z,1.70
2018-06-15T01:14:19.597Z,1.40
2018-06-15T01:16:47.728Z,1.70
2018-06-15T01:19:15.909Z,1.83
2018-06-15T01:21:44.080Z,1.57
2018-06-15T01:24:12.241Z,1.90
2018-06-15T01:26:40.373Z,1.77
2018-06-15T01:29:08.513Z,2.20
2018-06-15T01:31:36.672Z,1.33
2018-06-15T01:34:04.819Z,1.97
2018-06-15T01:36:32.951Z,1.80
2018-06-15T01:39:01.104Z,1.57
2018-06-15T01:41:29.245Z,1.80
2018-06-15T01:43:57.406Z,1.87
2018-06-15T01:46:25.582Z,1.60
2018-06-15T01:48:53.736Z,1.60
2018-06-15T01:51:21.869Z,1.70
2018-06-15T01:53:50.068Z,2.07
2018-06-15T01:56:18.204Z,2.07
2018-06-15T01:58:46.349Z,2.10
2018-06-15T02:01:14.522Z,1.93
2018-06-15T02:03:42.698Z,1.10
2018-06-15T02:06:10.873Z,1.60
2018-06-15T02:08:39.029Z,2.00
2018-06-15T02:11:07.529Z,1.93
2018-06-15T02:13:35.697Z,1.77
2018-06-15T02:16:03.870Z,2.07
2018-06-15T02:18:32.045Z,2.20
2018-06-15T02:21:00.221Z,1.47
2018-06-15T02:23:28.409Z,1.73
2018-06-15T02:25:56.580Z,1.80
2018-06-15T02:28:24.777Z,1.53
2018-06-15T02:30:52.949Z,1.40
2018-06-15T02:33:21.125Z,1.97
2018-06-15T02:35:49.288Z,2.07
2018-06-15T02:38:17.469Z,1.60
2018-06-15T02:40:45.705Z,1.60
2018-06-15T02:43:13.893Z,1.90
2018-06-15T02:45:42.061Z,1.57
2018-06-15T02:48:10.233Z,1.73
2018-06-15T02:50:38.425Z,1.40
2018-06-15T02:53:06.645Z,1.93
2018-06-15T02:55:34.853Z,1.37
2018-06-15T02:58:03.516Z,1.30
2018-06-15T03:00:31.685Z,1.90
2018-06-15T03:02:59.868Z,1.40
2018-06-15T03:05:28.047Z,1.60
2018-06-15T03:07:56.226Z,1.43
2018-06-15T03:10:24.412Z,1.57
2018-06-15T03:12:52.600Z,1.50
2018-06-15T03:15:20.784Z,1.23
2018-06-15T03:17:48.957Z,1.87
2018-06-15T03:20:17.156Z,1.53
2018-06-15T03:22:45.373Z,1.50
2018-06-15T03:25:13.640Z,1.97
2018-06-15T03:27:41.791Z,1.70
2018-06-15T03:30:09.993Z,1.70
2018-06-15T03:32:38.575Z,1.57
2018-06-15T03:35:06.802Z,1.57
2018-06-15T03:37:35.072Z,1.70
2018-06-15T03:40:03.360Z,1.77
2018-06-15T03:42:31.553Z,2.20
2018-06-15T03:44:59.744Z,1.60
2018-06-15T03:47:27.936Z,2.37
2018-06-15T03:49:56.132Z,2.00
2018-06-15T03:52:24.465Z,2.07
2018-06-15T03:54:52.685Z,1.73
2018-06-15T03:57:20.876Z,1.80
2018-06-15T03:59:49.068Z,1.63
2018-06-15T04:02:17.261Z,1.60
2018-06-15T04:04:45.459Z,1.70
2018-06-15T04:07:13.674Z,1.63
2018-06-15T04:09:41.876Z,1.33
2018-06-15T04:12:10.063Z,1.77
2018-06-15T04:14:38.251Z,2.27
2018-06-15T04:17:06.673Z,1.87
2018-06-15T04:19:34.910Z,1.90
2018-06-15T04:22:03.117Z,1.37
2018-06-15T04:24:31.323Z,1.87
2018-06-15T04:26:59.516Z,1.93
2018-06-15T04:29:27.723Z,2.20
2018-06-15T04:32:09.488Z,1.50
2018-06-15T04:34:37.897Z,1.80
2018-06-15T04:37:06.074Z,1.57
2018-06-15T04:39:34.396Z,1.87
2018-06-15T04:42:02.569Z,1.73
2018-06-15T04:44:30.758Z,1.73
2018-06-15T04:46:58.696Z,1.90
2018-06-15T04:49:26.888Z,1.73
2018-06-15T04:51:55.121Z,1.57
2018-06-15T04:54:23.325Z,1.70
2018-06-15T04:56:51.601Z,2.00
2018-06-15T04:59:20.358Z,2.30
2018-06-15T05:01:48.541Z,2.83
2018-06-15T05:04:16.765Z,2.30
2018-06-15T05:06:44.969Z,2.43
2018-06-15T05:09:13.237Z,1.97
2018-06-15T05:11:41.572Z,2.20
2018-06-15T05:14:09.781Z,2.30
2018-06-15T05:16:37.969Z,2.13
2018-06-15T05:19:06.176Z,1.80
2018-06-15T05:21:34.383Z,2.17
2018-06-15T05:24:02.543Z,2.43
2018-06-15T05:26:30.745Z,1.93
2018-06-15T05:28:58.939Z,2.00
2018-06-15T05:31:27.133Z,1.53
2018-06-15T05:33:55.382Z,2.27
2018-06-15T05:36:23.627Z,2.10
2018-06-15T05:38:51.798Z,2.00
2018-06-15T05:41:19.976Z,2.10
2018-06-15T05:43:48.157Z,2.10
2018-06-15T05:46:16.348Z,2.13
2018-06-15T05:48:44.517Z,1.93
2018-06-15T05:51:12.803Z,2.00
2018-06-15T05:53:40.995Z,1.50
2018-06-15T05:56:09.189Z,2.17
2018-06-15T05:58:37.368Z,1.80
2018-06-15T06:01:05.562Z,2.87
2018-06-15T06:03:33.749Z,2.40
2018-06-15T06:06:01.940Z,2.33
2018-06-15T06:08:30.120Z,2.10
2018-06-15T06:10:58.316Z,2.83
2018-06-15T06:13:26.549Z,2.40
2018-06-15T06:15:54.687Z,2.13
2018-06-15T06:18:22.852Z,1.80
2018-06-15T06:20:51.024Z,2.10
2018-06-15T06:23:19.203Z,2.50
2018-06-15T06:25:47.432Z,1.87
2018-06-15T06:28:15.583Z,1.57
2018-06-15T06:30:43.766Z,1.80
2018-06-15T06:33:12.112Z,2.37
2018-06-15T06:35:40.301Z,2.20
2018-06-15T06:38:08.497Z,1.80
2018-06-15T06:40:36.682Z,1.73
2018-06-15T06:43:04.864Z,1.53
2018-06-15T06:45:33.050Z,1.70
2018-06-15T06:48:01.248Z,1.47
2018-06-15T06:50:29.496Z,1.43
2018-06-15T06:52:57.673Z,1.40
2018-06-15T06:55:25.847Z,3.10
2018-06-15T06:57:54.041Z,2.83
2018-06-15T07:00:22.327Z,2.07
2018-06-15T07:02:50.534Z,2.40
2018-06-15T07:05:18.744Z,2.70
2018-06-15T07:07:46.927Z,2.10
2018-06-15T07:10:15.126Z,1.97
2018-06-15T07:12:43.332Z,1.80
2018-06-15T07:15:11.516Z,2.70
2018-06-15T07:17:39.739Z,2.50
2018-06-15T07:20:07.933Z,2.47
2018-06-15T07:22:36.137Z,3.13
2018-06-15T07:25:04.370Z,2.30
2018-06-15T07:27:32.589Z,1.70
2018-06-15T07:30:01.013Z,2.33
2018-06-15T07:32:29.208Z,2.27
2018-06-15T07:34:57.389Z,2.17
2018-06-15T07:37:25.572Z,2.77
2018-06-15T07:39:53.754Z,2.40
2018-06-15T07:42:21.985Z,2.37
2018-06-15T07:44:50.189Z,3.50
2018-06-15T07:47:18.461Z,3.57
2018-06-15T07:49:46.644Z,3.20
2018-06-15T07:52:14.838Z,2.70
2018-06-15T07:54:43.065Z,2.20
2018-06-15T07:57:11.237Z,3.47
2018-06-15T07:59:39.447Z,4.10
2018-06-15T08:02:07.604Z,3.67
2018-06-15T08:04:35.822Z,3.33
2018-06-15T08:07:04.447Z,3.77
2018-06-15T08:09:32.704Z,3.97
2018-06-15T08:12:00.911Z,3.30
2018-06-15T08:14:29.107Z,3.13
2018-06-15T08:16:57.281Z,2.90
2018-06-15T08:19:25.473Z,3.80
2018-06-15T08:21:53.656Z,4.60
2018-06-15T08:24:21.847Z,3.70
2018-06-15T08:26:50.043Z,3.77
2018-06-15T08:29:18.248Z,3.70
2018-06-15T08:31:46.459Z,4.87
2018-06-15T08:34:14.644Z,4.40
2018-06-15T08:36:42.825Z,3.33
2018-06-15T08:39:12.064Z,3.70
2018-06-15T08:41:40.346Z,3.03
2018-06-15T08:44:08.567Z,3.13
2018-06-15T08:46:37.195Z,3.97
2018-06-15T08:49:05.372Z,4.83
2018-06-15T08:51:33.537Z,4.00
2018-06-15T08:54:01.739Z,5.10
2018-06-15T08:56:29.912Z,4.30
2018-06-15T08:58:58.092Z,4.40
2018-06-15T09:01:26.296Z,4.40
2018-06-15T09:03:54.512Z,3.30
2018-06-15T09:06:22.718Z,3.17
2018-06-15T09:08:51.173Z,4.17
2018-06-15T09:11:19.365Z,4.90
2018-06-15T09:13:47.572Z,4.80
2018-06-15T09:16:15.773Z,4.30
2018-06-15T09:18:44.034Z,3.03
2018-06-15T09:21:12.229Z,4.73
2018-06-15T09:23:40.489Z,3.30
2018-06-15T09:26:08.669Z,3.40
2018-06-15T09:28:36.608Z,3.47
2018-06-15T09:31:04.816Z,3.23
2018-06-15T09:33:32.999Z,3.03
2018-06-15T09:36:01.190Z,3.30
2018-06-15T09:38:29.373Z,4.13
2018-06-15T09:40:57.688Z,3.70
2018-06-15T09:43:25.909Z,4.10
2018-06-15T09:45:54.098Z,3.17
2018-06-15T09:48:22.280Z,2.70
2018-06-15T09:50:50.476Z,3.23
2018-06-15T09:53:18.662Z,2.77
2018-06-15T09:55:46.847Z,2.93
2018-06-15T09:58:15.023Z,2.57
2018-06-15T10:00:48.748Z,4.00
2018-06-15T10:03:16.934Z,3.40
2018-06-15T10:05:45.154Z,2.90
2018-06-15T10:08:13.348Z,3.30
2018-06-15T10:10:41.548Z,3.87
2018-06-15T10:13:09.770Z,3.20
2018-06-15T10:15:37.946Z,3.43
2018-06-15T10:18:06.154Z,3.50
2018-06-15T10:20:34.343Z,3.50
2018-06-15T10:23:02.529Z,2.80
2018-06-15T10:25:30.709Z,2.00
2018-06-15T10:27:58.921Z,3.07
2018-06-15T10:30:27.138Z,2.60
2018-06-15T10:32:55.334Z,2.40
2018-06-15T10:35:23.939Z,2.03
2018-06-15T10:37:52.142Z,2.40
2018-06-15T10:40:20.341Z,2.20
2018-06-15T10:42:48.537Z,2.27
2018-06-15T10:45:16.724Z,2.27
2018-06-15T10:47:44.914Z,2.30
2018-06-15T10:50:13.204Z,3.30
2018-06-15T10:52:41.391Z,2.27
2018-06-15T10:55:09.578Z,2.43
2018-06-15T10:57:37.784Z,3.07
2018-06-15T11:00:06.001Z,2.60
2018-06-15T11:02:34.257Z,3.13
2018-06-15T11:05:02.433Z,3.23
2018-06-15T11:07:30.650Z,4.30
2018-06-15T11:09:58.845Z,3.57
2018-06-15T11:12:27.066Z,3.37
2018-06-15T11:14:55.279Z,3.33
2018-06-15T11:17:23.480Z,2.50
2018-06-15T11:19:51.719Z,4.13
2018-06-15T11:22:19.893Z,3.27
2018-06-15T11:24:48.063Z,2.80
2018-06-15T11:27:16.249Z,3.50
2018-06-15T11:29:44.448Z,2.53
2018-06-15T11:32:13.582Z,3.87
2018-06-15T11:34:41.794Z,3.70
2018-06-15T11:37:09.981Z,3.10
2018-06-15T11:39:38.175Z,3.00
2018-06-15T11:42:06.371Z,3.07
2018-06-15T11:44:34.550Z,2.60
2018-06-15T11:47:02.789Z,2.97
2018-06-15T11:49:31.005Z,2.40
2018-06-15T11:52:00.903Z,3.27
2018-06-15T11:54:29.142Z,2.40
2018-06-15T11:56:57.355Z,2.67
2018-06-15T11:59:25.637Z,2.00
2018-06-15T12:01:53.881Z,2.13
2018-06-15T12:04:22.040Z,2.30
2018-06-15T12:06:50.228Z,2.57
2018-06-15T12:09:18.424Z,1.53
2018-06-15T12:11:46.625Z,2.20
2018-06-15T12:14:14.813Z,2.70
2018-06-15T12:16:43.038Z,2.90
2018-06-15T12:19:11.253Z,2.73
2018-06-15T12:21:39.527Z,3.27
2018-06-15T12:24:07.694Z,3.80
2018-06-15T12:26:35.900Z,3.23
2018-06-15T12:29:04.092Z,2.70
2018-06-15T12:31:32.608Z,3.17
2018-06-15T12:34:00.829Z,2.40
2018-06-15T12:36:29.012Z,3.67
2018-06-15T12:38:57.215Z,2.70
2018-06-15T12:41:25.496Z,2.60
2018-06-15T12:43:53.710Z,2.27
2018-06-15T12:46:21.920Z,2.00
2018-06-15T12:48:50.085Z,3.40
2018-06-15T12:51:18.318Z,2.77
2018-06-15T12:53:46.483Z,3.00
2018-06-15T12:56:14.681Z,2.87
2018-06-15T12:58:42.870Z,3.30
2018-06-15T13:01:11.103Z,2.40
2018-06-15T13:03:39.310Z,2.30
2018-06-15T13:06:07.662Z,3.20
2018-06-15T13:08:35.857Z,2.70
2018-06-15T13:11:04.086Z,2.70
2018-06-15T13:13:32.267Z,3.60
2018-06-15T13:16:00.456Z,3.07
2018-06-15T13:18:28.657Z,2.90
2018-06-15T13:20:56.862Z,2.20
2018-06-15T13:23:25.059Z,2.40
2018-06-15T13:25:53.232Z,3.00
2018-06-15T13:28:21.432Z,2.43
2018-06-15T13:30:49.615Z,2.33
2018-06-15T13:33:17.819Z,2.57
2018-06-15T13:35:45.980Z,1.67
2018-06-15T13:38:14.206Z,1.90
2018-06-15T13:40:42.429Z,2.93
2018-06-15T13:43:10.751Z,2.50
2018-06-15T13:45:38.952Z,2.40
2018-06-15T13:48:07.141Z,2.70
2018-06-15T13:50:35.336Z,2.60
2018-06-15T13:53:03.541Z,2.77
2018-06-15T13:55:31.786Z,2.40
2018-06-15T13:57:59.989Z,2.47
2018-06-15T14:00:28.254Z,2.63
2018-06-15T14:02:56.376Z,2.60
2018-06-15T14:05:24.550Z,3.53
2018-06-15T14:07:52.763Z,2.03
2018-06-15T14:10:20.959Z,2.20
2018-06-15T14:12:49.186Z,2.30
2018-06-15T14:15:17.326Z,2.30
2018-06-15T14:17:45.643Z,2.00
2018-06-15T14:20:13.833Z,2.53
2018-06-15T14:22:42.045Z,2.90
2018-06-15T14:25:10.277Z,2.90
2018-06-15T14:27:39.002Z,2.37
2018-06-15T14:30:07.220Z,2.90
2018-06-15T14:32:35.408Z,3.17
2018-06-15T14:35:03.615Z,1.93
2018-06-15T14:37:31.817Z,2.87
2018-06-15T14:39:59.994Z,2.30
2018-06-15T14:42:28.187Z,2.40
2018-06-15T14:44:56.374Z,2.60
2018-06-15T14:47:24.579Z,2.23
2018-06-15T14:49:52.763Z,2.30
2018-06-15T14:52:20.950Z,2.30
2018-06-15T14:54:49.149Z,3.17
2018-06-15T14:57:18.643Z,3.00
2018-06-15T14:59:52.476Z,3.50
2018-06-15T15:02:20.757Z,4.27
2018-06-15T15:04:49.022Z,3.60
2018-06-15T15:07:17.189Z,4.27
2018-06-15T15:09:45.385Z,2.70
2018-06-15T15:12:13.576Z,3.10
2018-06-15T15:14:41.786Z,2.93
2018-06-15T15:17:09.993Z,3.03
2018-06-15T15:19:38.203Z,2.87
2018-06-15T15:22:06.451Z,2.13
2018-06-15T15:24:34.645Z,2.73
2018-06-15T15:27:02.848Z,2.30
2018-06-15T15:29:30.855Z,2.33
2018-06-15T15:31:59.004Z,3.03
2018-06-15T15:34:27.444Z,2.97
2018-06-15T15:36:55.660Z,3.37
2018-06-15T15:39:23.852Z,2.37
2018-06-15T15:41:52.018Z,2.70
2018-06-15T15:44:20.654Z,2.47
2018-06-15T15:46:48.596Z,2.27
2018-06-15T15:49:16.783Z,1.77
2018-06-15T15:51:44.976Z,1.90
2018-06-15T15:54:13.157Z,2.10
2018-06-15T15:56:41.348Z,2.87
2018-06-15T15:59:09.561Z,2.97
2018-06-15T16:01:37.748Z,2.77
2018-06-15T16:04:11.696Z,2.40
2018-06-15T16:06:39.892Z,2.10
2018-06-15T16:09:09.568Z,2.43
2018-06-15T16:11:37.747Z,2.73
2018-06-15T16:14:06.353Z,2.27
2018-06-15T16:16:34.723Z,2.83
2018-06-15T16:19:02.903Z,2.90
2018-06-15T16:21:31.281Z,2.60
2018-06-15T16:23:59.508Z,3.63
2018-06-15T16:26:27.684Z,3.67
2018-06-15T16:28:55.878Z,3.33
2018-06-15T16:31:24.520Z,3.10
2018-06-15T16:33:52.724Z,2.70
2018-06-15T16:36:20.910Z,2.47
2018-06-15T16:38:49.183Z,3.20
2018-06-15T16:41:17.620Z,2.83
2018-06-15T16:43:45.808Z,3.00
2018-06-15T16:46:14.006Z,3.07
2018-06-15T16:48:42.244Z,2.37
2018-06-15T16:51:10.465Z,2.73
2018-06-15T16:53:38.781Z,2.10
2018-06-15T16:56:07.008Z,2.23
2018-06-15T16:58:35.179Z,2.00
2018-06-15T17:01:03.447Z,2.63
2018-06-15T17:03:31.817Z,2.90
2018-06-15T17:06:00.164Z,3.00
2018-06-15T17:08:28.341Z,2.90
2018-06-15T17:10:56.556Z,2.60
2018-06-15T17:13:24.730Z,2.53
2018-06-15T17:15:53.185Z,2.37
2018-06-15T17:18:21.421Z,2.87
2018-06-15T17:20:49.610Z,2.70
2018-06-15T17:23:19.675Z,2.70
2018-06-15T17:25:47.862Z,2.60
2018-06-15T17:28:16.060Z,2.77
2018-06-15T17:30:44.271Z,2.70
2018-06-15T17:33:12.460Z,2.40
2018-06-15T17:35:40.645Z,2.20
2018-06-15T17:38:08.846Z,2.23
2018-06-15T17:40:37.026Z,1.97
2018-06-15T17:43:05.205Z,2.00
2018-06-15T17:45:33.411Z,2.03
2018-06-15T17:48:01.630Z,2.20
2018-06-15T17:50:29.995Z,1.60
2018-06-15T17:52:58.191Z,1.80
2018-06-15T17:55:26.375Z,1.83
2018-06-15T17:57:54.563Z,2.07
2018-06-15T18:00:22.792Z,2.17
2018-06-15T18:02:50.988Z,1.57
2018-06-15T18:05:19.194Z,1.67
2018-06-15T18:07:47.396Z,1.60
2018-06-15T18:10:15.641Z,1.60
2018-06-15T18:12:43.835Z,1.47
2018-06-15T18:15:12.194Z,1.77
2018-06-15T18:17:40.437Z,1.80
2018-06-15T18:20:08.675Z,1.63
2018-06-15T18:22:37.484Z,1.60
2018-06-15T18:25:05.965Z,1.77
2018-06-15T18:27:34.248Z,1.90
2018-06-15T18:30:02.601Z,1.50
2018-06-15T18:32:30.912Z,1.63
2018-06-15T18:34:59.237Z,1.60
2018-06-15T18:37:28.169Z,1.33
2018-06-15T18:39:56.432Z,1.87
2018-06-15T18:42:24.633Z,1.70
2018-06-15T18:44:52.853Z,1.73
2018-06-15T18:47:21.305Z,1.77
2018-06-15T18:49:49.485Z,1.57
2018-06-15T18:52:17.666Z,2.10
2018-06-15T18:54:45.909Z,1.83
2018-06-15T18:57:14.045Z,1.73
2018-06-15T18:59:42.653Z,1.73
2018-06-15T19:02:11.709Z,1.63
2018-06-15T19:04:39.943Z,1.67
2018-06-15T19:07:08.601Z,1.87
2018-06-15T19:09:36.911Z,1.83
2018-06-15T19:12:05.144Z,1.70
2018-06-15T19:14:33.324Z,1.60
2018-06-15T19:17:01.520Z,1.63
2018-06-15T19:19:29.775Z,1.60
2018-06-15T19:21:58.063Z,2.00
2018-06-15T19:24:26.280Z,1.90
2018-06-15T19:26:54.606Z,1.70
2018-06-15T19:29:23.066Z,1.70
2018-06-15T19:31:51.269Z,2.07
2018-06-15T19:34:19.585Z,1.93
2018-06-15T19:36:47.797Z,1.60
2018-06-15T19:39:15.978Z,1.70
2018-06-15T19:41:44.193Z,1.67
2018-06-15T19:44:12.379Z,1.90
2018-06-15T19:46:40.565Z,1.70
2018-06-15T19:49:08.789Z,2.43
2018-06-15T19:51:37.118Z,1.70
2018-06-15T19:54:05.310Z,1.53
2018-06-15T19:56:33.549Z,1.87
2018-06-15T19:59:01.997Z,1.70
2018-06-15T20:01:30.158Z,1.70
2018-06-15T20:03:58.494Z,1.80
2018-06-15T20:06:26.676Z,2.13
2018-06-15T20:08:54.919Z,1.87
2018-06-15T20:11:23.152Z,2.00
2018-06-15T20:13:51.366Z,1.70
2018-06-15T20:16:19.648Z,2.00
2018-06-15T20:18:47.857Z,1.90
2018-06-15T20:21:16.045Z,2.03
2018-06-15T20:23:44.243Z,1.70
2018-06-15T20:26:12.431Z,1.77
2018-06-15T20:28:40.624Z,2.63
2018-06-15T20:31:08.876Z,2.33
2018-06-15T20:33:37.051Z,1.67
2018-06-15T20:36:05.283Z,1.93
2018-06-15T20:38:33.487Z,2.07
2018-06-15T20:42:29.682Z,2.97
2018-06-15T20:44:57.901Z,2.97
2018-06-15T20:47:26.102Z,2.60
2018-06-15T20:49:54.307Z,2.70
2018-06-15T20:52:22.534Z,2.57
2018-06-15T20:54:50.737Z,2.50
2018-06-15T20:57:18.920Z,2.83
2018-06-15T20:59:47.899Z,3.00
2018-06-15T21:02:16.101Z,2.33
2018-06-15T21:04:44.288Z,2.60
2018-06-15T21:07:12.493Z,2.50
2018-06-15T21:09:40.679Z,2.80
2018-06-15T21:12:08.877Z,2.57
2018-06-15T21:14:37.135Z,2.60
2018-06-15T21:17:05.322Z,2.20
2018-06-15T21:19:33.270Z,2.63
2018-06-15T21:22:01.449Z,2.33
2018-06-15T21:24:29.661Z,2.37
2018-06-15T21:26:57.849Z,2.03
2018-06-15T21:29:26.063Z,1.93
2018-06-15T21:31:54.276Z,2.00
2018-06-15T21:34:22.484Z,2.30
2018-06-15T21:36:50.713Z,2.60
2018-06-15T21:39:18.913Z,2.27
2018-06-15T21:41:47.099Z,2.93
2018-06-15T21:44:15.289Z,2.60
2018-06-15T21:46:43.678Z,2.10
2018-06-15T21:49:11.873Z,2.60
2018-06-15T21:51:40.080Z,2.30
2018-06-15T21:54:08.270Z,2.07
2018-06-15T21:56:36.464Z,1.93
2018-06-15T21:59:04.687Z,2.30
2018-06-15T22:01:33.235Z,1.97
2018-06-15T22:04:01.444Z,2.00
2018-06-15T22:06:29.646Z,2.10
2018-06-15T22:08:57.852Z,1.73
2018-06-15T22:11:26.017Z,1.50
2018-06-15T22:13:54.208Z,2.23
2018-06-15T22:16:22.464Z,2.50
2018-06-15T22:18:50.740Z,2.30
2018-06-15T22:21:18.949Z,2.10
2018-06-15T22:23:47.205Z,1.90
2018-06-15T22:26:15.411Z,2.50
2018-06-15T22:28:43.592Z,2.30
2018-06-15T22:31:11.809Z,1.87
2018-06-15T22:33:39.984Z,2.60
2018-06-15T22:36:08.179Z,1.80
2018-06-15T22:38:36.374Z,2.40
2018-06-15T22:41:04.573Z,2.00
2018-06-15T22:43:32.767Z,2.00
2018-06-15T22:46:00.973Z,2.17
2018-06-15T22:48:28.910Z,1.73
2018-06-15T22:50:57.104Z,2.17
2018-06-15T22:53:25.286Z,1.73
2018-06-15T22:55:53.475Z,2.20
2018-06-15T22:58:21.656Z,2.00
2018-06-15T23:00:49.836Z,2.00
2018-06-15T23:03:18.053Z,2.40
2018-06-15T23:05:46.270Z,1.73
2018-06-15T23:08:14.454Z,1.43
2018-06-15T23:10:42.645Z,1.90
2018-06-15T23:13:10.824Z,1.80
2018-06-15T23:15:39.061Z,2.40
2018-06-15T23:18:07.249Z,1.80
2018-06-15T23:20:35.471Z,1.67
2018-06-15T23:23:03.640Z,1.80
2018-06-15T23:25:31.581Z,1.90
2018-06-15T23:27:59.746Z,1.63
2018-06-15T23:30:27.906Z,1.60
2018-06-15T23:32:56.081Z,2.07
2018-06-15T23:35:24.247Z,1.47
2018-06-15T23:37:52.399Z,2.10
2018-06-15T23:40:20.557Z,1.83
2018-06-15T23:42:48.699Z,2.00
2018-06-15T23:45:16.842Z,1.83
2018-06-15T23:47:45.001Z,1.50
2018-06-15T23:50:13.142Z,1.60
2018-06-15T23:52:41.330Z,1.40
2018-06-15T23:55:09.466Z,1.93
2018-06-15T23:57:44.364Z,1.53
